createdAt,value
2018-10-21T00:00:58.179Z,13.88
2018-10-21T00:03:28.419Z,14.50
2018-10-21T00:05:58.796Z,13.67
2018-10-21T00:08:29.326Z,14.83
2018-10-21T00:10:59.880Z,15.35
2018-10-21T00:13:31.222Z,13.90
2018-10-21T00:16:01.828Z,15.05
2018-10-21T00:18:32.094Z,14.30
2018-10-21T00:21:02.827Z,14.67
2018-10-21T00:23:33.295Z,14.20
2018-10-21T00:26:03.707Z,13.80
2018-10-21T00:28:34.164Z,14.30
2018-10-21T00:31:05.408Z,14.13
2018-10-21T00:33:35.831Z,14.70
2018-10-21T00:36:06.752Z,13.62
2018-10-21T00:38:37.741Z,14.33
2018-10-21T00:41:12.624Z,14.13
2018-10-21T00:43:43.051Z,14.73
2018-10-21T00:46:13.528Z,13.98
2018-10-21T00:48:44.346Z,15.37
2018-10-21T00:51:14.997Z,15.57
2018-10-21T00:53:45.636Z,15.67
2018-10-21T00:56:15.984Z,16.02
2018-10-21T00:58:46.300Z,15.63
2018-10-21T01:01:16.731Z,16.05
2018-10-21T01:03:47.462Z,15.67
2018-10-21T01:06:17.715Z,15.85
2018-10-21T01:08:48.932Z,15.30
2018-10-21T01:11:19.643Z,16.63
2018-10-21T01:13:50.366Z,16.52
2018-10-21T01:16:21.106Z,15.25
2018-10-21T01:18:51.367Z,16.23
2018-10-21T01:21:22.666Z,16.02
2018-10-21T01:23:53.121Z,16.90
2018-10-21T01:26:24.020Z,16.87
2018-10-21T01:28:54.416Z,17.13
2018-10-21T01:31:25.698Z,16.73
2018-10-21T01:33:56.047Z,16.70
2018-10-21T01:36:29.522Z,16.23
2018-10-21T01:39:00.019Z,17.45
2018-10-21T01:41:31.009Z,18.15
2018-10-21T01:44:01.450Z,16.37
2018-10-21T01:46:31.779Z,16.20
2018-10-21T01:49:02.409Z,17.82
2018-10-21T01:51:33.392Z,16.57
2018-10-21T01:54:03.750Z,18.10
2018-10-21T01:56:35.489Z,17.50
2018-10-21T01:59:05.877Z,17.10
2018-10-21T02:01:36.051Z,17.70
2018-10-21T02:04:09.115Z,17.13
2018-10-21T02:06:39.538Z,16.40
2018-10-21T02:11:47.118Z,16.63
2018-10-21T02:14:17.455Z,16.67
2018-10-21T02:16:48.116Z,16.77
2018-10-21T02:19:18.420Z,17.17
2018-10-21T02:21:49.075Z,16.33
2018-10-21T02:24:19.307Z,17.63
2018-10-21T02:26:49.767Z,15.95
2018-10-21T02:29:20.974Z,17.65
2018-10-21T02:31:51.508Z,16.27
2018-10-21T02:34:21.829Z,17.48
2018-10-21T02:36:52.184Z,16.95
2018-10-21T02:39:22.576Z,15.50
2018-10-21T02:41:57.097Z,15.67
2018-10-21T02:44:27.707Z,16.62
2018-10-21T02:46:58.431Z,16.40
2018-10-21T02:49:28.908Z,17.27
2018-10-21T02:52:04.462Z,17.07
2018-10-21T02:54:35.314Z,16.67
2018-10-21T02:57:08.036Z,16.13
2018-10-21T02:59:38.610Z,16.57
2018-10-21T03:02:09.409Z,17.03
2018-10-21T03:04:39.929Z,16.05
2018-10-21T03:07:13.944Z,16.95
2018-10-21T03:12:20.792Z,16.30
2018-10-21T03:14:51.096Z,16.17
2018-10-21T03:17:21.602Z,15.72
2018-10-21T03:19:52.198Z,17.02
2018-10-21T03:22:22.511Z,16.63
2018-10-21T03:24:53.050Z,16.17
2018-10-21T03:27:23.407Z,16.80
2018-10-21T03:29:54.759Z,17.17
2018-10-21T03:32:25.573Z,17.27
2018-10-21T03:34:55.815Z,17.35
2018-10-21T03:37:26.364Z,17.80
2018-10-21T03:39:56.781Z,17.45
2018-10-21T03:42:27.064Z,16.15
2018-10-21T03:44:57.993Z,17.53
2018-10-21T03:47:28.357Z,17.47
2018-10-21T03:49:58.798Z,16.55
2018-10-21T03:52:29.580Z,16.30
2018-10-21T03:55:00.374Z,15.90
2018-10-21T03:57:31.236Z,15.80
2018-10-21T04:00:02.869Z,15.88
2018-10-21T04:02:34.063Z,16.63
2018-10-21T04:05:04.523Z,15.47
2018-10-21T04:07:35.911Z,14.87
2018-10-21T04:10:06.817Z,16.47
2018-10-21T04:12:37.400Z,14.90
2018-10-21T04:15:08.324Z,14.98
2018-10-21T04:17:39.560Z,15.40
2018-10-21T04:20:10.400Z,15.30
2018-10-21T04:22:58.167Z,15.63
2018-10-21T04:25:29.315Z,15.50
2018-10-21T04:28:00.673Z,16.03
2018-10-21T04:30:33.186Z,13.33
2018-10-21T04:33:11.230Z,15.08
2018-10-21T04:35:41.772Z,14.78
2018-10-21T04:38:25.837Z,14.10
2018-10-21T04:40:56.379Z,14.10
2018-10-21T04:43:26.783Z,13.32
2018-10-21T04:45:57.463Z,14.68
2018-10-21T04:48:27.735Z,14.50
2018-10-21T04:50:58.046Z,14.17
2018-10-21T04:53:28.522Z,15.03
2018-10-21T04:55:58.812Z,14.40
2018-10-21T04:58:29.619Z,14.30
2018-10-21T05:01:00.084Z,14.73
2018-10-21T05:03:30.701Z,14.43
2018-10-21T05:06:01.115Z,13.98
2018-10-21T05:11:08.492Z,13.43
2018-10-21T05:13:38.678Z,13.63
2018-10-21T05:16:08.888Z,13.10
2018-10-21T05:18:40.042Z,13.10
2018-10-21T05:21:10.663Z,14.25
2018-10-21T05:23:42.463Z,14.03
2018-10-21T05:26:13.058Z,13.17
2018-10-21T05:28:43.471Z,13.10
2018-10-21T05:31:13.631Z,12.40
2018-10-21T05:33:44.662Z,12.43
2018-10-21T05:36:14.882Z,12.18
2018-10-21T05:38:45.512Z,11.88
2018-10-21T05:41:17.609Z,12.03
2018-10-21T05:43:47.804Z,12.07
2018-10-21T05:46:35.962Z,11.70
2018-10-21T05:49:06.371Z,11.50
2018-10-21T05:51:37.575Z,11.95
2018-10-21T05:54:08.858Z,11.87
2018-10-21T05:56:41.022Z,11.70
2018-10-21T05:59:11.836Z,12.20
2018-10-21T06:01:42.809Z,12.13
2018-10-21T06:04:14.347Z,12.13
2018-10-21T06:06:45.431Z,11.97
2018-10-21T06:09:15.838Z,12.70
2018-10-21T06:11:46.361Z,13.03
2018-10-21T06:14:17.187Z,11.35
2018-10-21T06:16:51.532Z,12.00
2018-10-21T06:21:58.700Z,11.77
2018-10-21T06:24:29.223Z,12.57
2018-10-21T06:27:02.205Z,11.70
2018-10-21T06:29:36.370Z,11.83
2018-10-21T06:32:13.245Z,11.63
2018-10-21T06:34:43.860Z,12.58
2018-10-21T06:37:14.434Z,12.37
2018-10-21T06:39:44.678Z,13.05
2018-10-21T06:42:17.706Z,11.90
2018-10-21T06:44:48.642Z,12.37
2018-10-21T06:47:19.371Z,11.85
2018-10-21T06:49:49.725Z,12.13
2018-10-21T06:52:20.129Z,12.60
2018-10-21T06:54:51.190Z,13.10
2018-10-21T06:57:22.398Z,13.72
2018-10-21T06:59:52.738Z,14.27
2018-10-21T07:02:22.859Z,14.93
2018-10-21T07:07:29.233Z,15.30
2018-10-21T07:10:04.279Z,15.28
2018-10-21T07:12:34.664Z,15.77
2018-10-21T07:15:05.685Z,16.15
2018-10-21T07:17:36.205Z,15.57
2018-10-21T07:20:06.587Z,15.95
2018-10-21T07:22:37.114Z,17.50
2018-10-21T07:25:09.121Z,15.68
2018-10-21T07:27:39.888Z,16.90
2018-10-21T07:30:12.109Z,16.57
2018-10-21T07:32:43.675Z,16.95
2018-10-21T07:35:14.959Z,18.77
2018-10-21T07:37:45.424Z,17.70
2018-10-21T07:40:16.820Z,18.50
2018-10-21T07:42:47.558Z,21.12
2018-10-21T07:45:19.621Z,18.57
2018-10-21T07:47:49.994Z,17.77
2018-10-21T07:50:20.187Z,17.62
2018-10-21T07:52:50.915Z,17.87
2018-10-21T07:55:21.701Z,18.98
2018-10-21T07:57:52.199Z,17.70
2018-10-21T08:00:22.497Z,17.50
2018-10-21T08:02:52.771Z,17.43
2018-10-21T08:05:35.102Z,17.67
2018-10-21T08:08:20.854Z,17.40
2018-10-21T08:10:51.235Z,17.95
2018-10-21T08:13:24.665Z,17.80
2018-10-21T08:15:55.451Z,18.57
2018-10-21T08:18:26.122Z,18.00
2018-10-21T08:20:56.916Z,17.50
2018-10-21T08:23:27.113Z,17.87
2018-10-21T08:25:57.510Z,18.20
2018-10-21T08:28:29.170Z,18.83
2018-10-21T08:31:04.690Z,18.67
2018-10-21T08:33:35.193Z,18.42
2018-10-21T08:36:06.184Z,18.70
2018-10-21T08:38:37.114Z,19.70
2018-10-21T08:41:07.530Z,18.62
2018-10-21T08:43:38.116Z,18.52
2018-10-21T08:46:08.546Z,19.02
2018-10-21T08:48:41.777Z,19.07
2018-10-21T08:51:12.661Z,18.20
2018-10-21T08:53:43.048Z,18.07
2018-10-21T08:56:13.795Z,19.02
2018-10-21T08:58:44.392Z,19.12
2018-10-21T09:01:15.073Z,17.80
2018-10-21T09:03:45.423Z,17.77
2018-10-21T09:06:15.834Z,17.67
2018-10-21T09:08:46.444Z,18.60
2018-10-21T09:11:16.953Z,19.62
2018-10-21T09:13:47.525Z,18.75
2018-10-21T09:16:19.047Z,18.48
2018-10-21T09:18:49.341Z,18.52
2018-10-21T09:21:20.067Z,18.23
2018-10-21T09:23:51.034Z,17.52
2018-10-21T09:26:21.850Z,17.70
2018-10-21T09:28:53.000Z,16.85
2018-10-21T09:31:23.489Z,16.43
2018-10-21T09:33:53.951Z,16.10
2018-10-21T09:36:25.006Z,16.93
2018-10-21T09:38:55.503Z,15.38
2018-10-21T09:41:26.746Z,16.03
2018-10-21T09:43:57.295Z,15.78
2018-10-21T09:46:27.433Z,16.20
2018-10-21T09:48:57.634Z,15.60
2018-10-21T09:51:27.880Z,16.50
2018-10-21T09:53:58.337Z,16.82
2018-10-21T09:56:28.505Z,16.97
2018-10-21T09:58:58.909Z,17.00
2018-10-21T10:01:34.850Z,16.57
2018-10-21T10:04:05.442Z,16.65
2018-10-21T10:06:36.501Z,16.90
2018-10-21T10:09:10.126Z,16.82
2018-10-21T10:11:40.931Z,15.72
2018-10-21T10:14:11.444Z,15.90
2018-10-21T10:16:41.840Z,16.75
2018-10-21T10:19:12.063Z,15.32
2018-10-21T10:21:42.097Z,15.72
2018-10-21T10:24:12.524Z,15.00
2018-10-21T10:26:43.023Z,15.67
2018-10-21T10:29:13.357Z,16.12
2018-10-21T10:31:44.287Z,15.80
2018-10-21T10:34:15.264Z,15.80
2018-10-21T10:39:21.435Z,14.67
2018-10-21T10:41:51.934Z,13.55
2018-10-21T10:44:22.223Z,13.40
2018-10-21T10:46:53.491Z,13.37
2018-10-21T10:49:23.740Z,12.93
2018-10-21T10:54:31.037Z,13.00
2018-10-21T10:57:01.469Z,13.25
2018-10-21T10:59:32.100Z,13.40
2018-10-21T11:02:02.441Z,12.88
2018-10-21T11:04:32.934Z,13.30
2018-10-21T11:07:03.256Z,12.57
2018-10-21T11:09:33.518Z,12.10
2018-10-21T11:12:03.916Z,12.93
2018-10-21T11:14:34.839Z,14.28
2018-10-21T11:17:05.326Z,14.40
2018-10-21T11:19:35.544Z,12.82
2018-10-21T11:22:06.093Z,14.00
2018-10-21T11:24:41.554Z,13.28
2018-10-21T11:27:12.583Z,12.63
2018-10-21T11:29:42.834Z,12.80
2018-10-21T11:32:13.260Z,12.88
2018-10-21T11:34:43.385Z,13.60
2018-10-21T11:37:13.812Z,13.43
2018-10-21T11:39:44.210Z,14.67
2018-10-21T11:42:14.386Z,14.05
2018-10-21T11:44:45.032Z,13.30
2018-10-21T11:47:15.366Z,14.20
2018-10-21T11:49:45.709Z,14.03
2018-10-21T11:52:16.735Z,13.93
2018-10-21T11:54:47.422Z,14.70
2018-10-21T11:57:17.798Z,14.40
2018-10-21T11:59:48.487Z,13.98
2018-10-21T12:02:19.241Z,13.98
2018-10-21T12:04:50.020Z,14.47
2018-10-21T12:07:20.508Z,14.35
2018-10-21T12:09:51.254Z,13.65
2018-10-21T12:12:21.436Z,13.38
2018-10-21T12:14:52.204Z,13.08
2018-10-21T12:17:22.407Z,14.43
2018-10-21T12:22:29.103Z,13.47
2018-10-21T12:24:59.542Z,13.25
2018-10-21T12:27:30.186Z,14.10
2018-10-21T12:30:00.491Z,13.88
2018-10-21T12:32:31.356Z,12.70
2018-10-21T12:35:02.171Z,14.05
2018-10-21T12:37:32.876Z,13.35
2018-10-21T12:40:03.402Z,13.20
2018-10-21T12:42:34.200Z,13.07
2018-10-21T12:45:06.265Z,12.60
2018-10-21T12:47:36.571Z,12.35
2018-10-21T12:50:07.230Z,14.18
2018-10-21T12:52:38.444Z,14.00
2018-10-21T12:55:09.615Z,14.60
2018-10-21T12:57:40.106Z,12.80
2018-10-21T13:00:11.564Z,12.53
2018-10-21T13:02:42.172Z,12.73
2018-10-21T13:05:12.639Z,13.85
2018-10-21T13:07:43.239Z,13.40
2018-10-21T13:10:13.758Z,14.50
2018-10-21T13:12:44.261Z,13.77
2018-10-21T13:15:14.590Z,13.33
2018-10-21T13:17:44.771Z,14.03
2018-10-21T13:20:15.046Z,14.28
2018-10-21T13:22:45.137Z,14.85
2018-10-21T13:25:15.396Z,14.03
2018-10-21T13:27:45.577Z,13.85
2018-10-21T13:30:16.060Z,13.40
2018-10-21T13:32:46.447Z,13.20
2018-10-21T13:35:17.083Z,15.23
2018-10-21T13:37:48.248Z,14.80
2018-10-21T13:40:18.887Z,13.88
2018-10-21T13:42:49.805Z,15.43
2018-10-21T13:45:20.344Z,16.50
2018-10-21T13:47:51.037Z,15.93
2018-10-21T13:50:21.332Z,15.08
2018-10-21T13:52:52.416Z,15.32
2018-10-21T13:55:29.728Z,14.80
2018-10-21T13:57:59.856Z,15.90
2018-10-21T14:00:37.377Z,15.98
2018-10-21T14:03:07.503Z,14.93
2018-10-21T14:05:37.715Z,16.07
2018-10-21T14:08:08.122Z,17.50
2018-10-21T14:10:38.431Z,16.90
2018-10-21T14:13:08.796Z,16.05
2018-10-21T14:15:39.086Z,14.30
2018-10-21T14:18:09.830Z,14.93
2018-10-21T14:20:40.028Z,14.73
2018-10-21T14:23:10.275Z,23.15
2018-10-21T14:25:40.770Z,15.20
2018-10-21T14:28:11.763Z,14.98
2018-10-21T14:30:42.217Z,15.13
2018-10-21T14:33:12.746Z,14.58
2018-10-21T14:35:43.042Z,15.80
2018-10-21T14:38:13.479Z,14.67
2018-10-21T14:40:43.840Z,15.87
2018-10-21T14:43:14.029Z,13.70
2018-10-21T14:45:44.653Z,14.83
2018-10-21T14:48:15.337Z,15.70
2018-10-21T14:50:45.452Z,17.37
2018-10-21T14:53:15.808Z,15.72
2018-10-21T14:55:46.386Z,16.93
2018-10-21T14:58:17.207Z,17.05
2018-10-21T15:00:47.705Z,16.80
2018-10-21T15:03:19.049Z,17.95
2018-10-21T15:05:49.233Z,16.93
2018-10-21T15:08:19.704Z,17.83
2018-10-21T15:10:50.111Z,19.02
2018-10-21T15:13:27.337Z,18.25
2018-10-21T15:15:57.847Z,19.20
2018-10-21T15:18:28.248Z,18.73
2018-10-21T15:20:58.448Z,18.90
2018-10-21T15:23:29.054Z,18.80
2018-10-21T15:25:59.340Z,19.50
2018-10-21T15:28:29.697Z,20.70
2018-10-21T15:31:00.301Z,21.02
2018-10-21T15:33:30.751Z,19.50
2018-10-21T15:36:01.628Z,19.37
2018-10-21T15:38:32.495Z,19.23
2018-10-21T15:41:02.823Z,19.00
2018-10-21T15:43:33.169Z,19.77
2018-10-21T15:46:03.981Z,19.20
2018-10-21T15:48:34.421Z,19.73
2018-10-21T15:51:05.597Z,26.45
2018-10-21T15:53:35.987Z,22.07
2018-10-21T15:56:06.526Z,22.30
2018-10-21T15:58:36.974Z,22.73
2018-10-21T16:01:07.534Z,23.12
2018-10-21T16:03:38.306Z,24.63
2018-10-21T16:06:09.289Z,25.48
2018-10-21T16:08:39.657Z,26.37
2018-10-21T16:11:10.229Z,30.65
2018-10-21T16:13:40.870Z,29.57
2018-10-21T16:16:11.945Z,28.15
2018-10-21T16:18:42.261Z,23.93
2018-10-21T16:21:12.961Z,22.73
2018-10-21T16:23:43.674Z,22.07
2018-10-21T16:28:52.614Z,23.43
2018-10-21T16:31:22.963Z,24.80
2018-10-21T16:33:53.439Z,24.92
2018-10-21T16:36:23.832Z,23.53
2018-10-21T16:38:54.410Z,27.77
2018-10-21T16:41:27.902Z,28.10
2018-10-21T16:43:58.955Z,26.42
2018-10-21T16:48:44.305Z,29.77
2018-10-21T16:51:17.168Z,32.17
2018-10-21T16:53:49.876Z,28.70
2018-10-21T16:56:22.959Z,26.30
2018-10-21T16:58:54.792Z,23.07
2018-10-21T17:01:26.905Z,22.77
2018-10-21T17:03:58.980Z,22.45
2018-10-21T17:06:30.974Z,23.67
2018-10-21T17:09:03.108Z,24.12
2018-10-21T17:11:35.247Z,24.20
2018-10-21T17:14:06.706Z,24.37
2018-10-21T17:16:38.718Z,25.02
2018-10-21T17:19:10.875Z,30.07
2018-10-21T17:21:43.458Z,31.93
2018-10-21T17:24:15.208Z,30.62
2018-10-21T17:26:47.531Z,39.70
2018-10-21T17:29:19.465Z,39.60
2018-10-21T17:31:51.293Z,38.07
2018-10-21T17:34:23.096Z,38.25
2018-10-21T17:36:55.690Z,34.90
2018-10-21T17:42:03.443Z,32.63
2018-10-21T17:44:35.408Z,35.87
2018-10-21T17:47:07.631Z,36.70
2018-10-21T17:52:15.271Z,34.83
2018-10-21T17:54:46.982Z,36.13
2018-10-21T17:57:19.162Z,35.27
2018-10-21T17:59:51.430Z,34.00
2018-10-21T18:02:23.486Z,35.78
2018-10-21T18:04:55.755Z,35.40
2018-10-21T18:07:27.643Z,38.70
2018-10-21T18:09:59.795Z,38.93
2018-10-21T18:12:31.764Z,37.27
2018-10-21T18:15:03.265Z,41.77
2018-10-21T18:18:12.526Z,45.97
2018-10-21T18:20:44.764Z,53.00
2018-10-21T18:23:17.294Z,50.75
2018-10-21T18:25:49.308Z,52.90
2018-10-21T18:28:20.979Z,54.20
2018-10-21T18:30:53.163Z,58.43
2018-10-21T18:33:25.766Z,48.17
2018-10-21T18:35:57.542Z,54.67
2018-10-21T18:38:29.688Z,51.87
2018-10-21T18:41:01.385Z,55.77
2018-10-21T18:43:35.521Z,54.33
2018-10-21T18:46:07.357Z,60.30
2018-10-21T18:48:39.239Z,78.13
2018-10-21T18:51:11.527Z,53.63
2018-10-21T18:53:43.490Z,61.80
2018-10-21T18:56:15.282Z,61.35
2018-10-21T18:58:47.997Z,54.38
2018-10-21T19:01:19.672Z,57.77
2018-10-21T19:03:51.499Z,52.10
2018-10-21T19:06:23.365Z,46.58
2018-10-21T19:08:56.381Z,49.48
2018-10-21T19:11:27.889Z,52.55
2018-10-21T19:13:59.891Z,55.53
2018-10-21T19:16:31.974Z,61.53
2018-10-21T19:19:03.810Z,54.80
2018-10-21T19:21:36.259Z,53.38
2018-10-21T19:24:09.233Z,61.15
2018-10-21T19:26:41.295Z,44.03
2018-10-21T19:29:13.060Z,49.07
2018-10-21T19:34:21.220Z,51.20
2018-10-21T19:36:52.843Z,56.95
2018-10-21T19:39:24.578Z,50.03
2018-10-21T19:41:56.368Z,49.97
2018-10-21T19:44:28.703Z,49.88
2018-10-21T19:47:01.210Z,48.87
2018-10-21T19:49:33.143Z,51.40
2018-10-21T19:52:05.224Z,55.90
2018-10-21T19:54:41.012Z,57.83
2018-10-21T19:57:12.872Z,59.70
2018-10-21T19:59:49.477Z,47.00
2018-10-21T20:02:21.101Z,46.50
2018-10-21T20:04:53.844Z,51.85
2018-10-21T20:07:26.122Z,48.00
2018-10-21T20:09:57.746Z,41.80
2018-10-21T20:12:29.435Z,43.17
2018-10-21T20:15:01.439Z,42.25
2018-10-21T20:17:33.207Z,42.40
2018-10-21T20:20:05.387Z,41.10
2018-10-21T20:22:37.151Z,44.38
2018-10-21T20:25:10.827Z,39.67
2018-10-21T20:27:42.803Z,41.07
2018-10-21T20:30:14.846Z,38.93
2018-10-21T20:32:46.700Z,39.08
2018-10-21T20:35:18.849Z,41.95
2018-10-21T20:37:50.474Z,41.00
2018-10-21T20:40:22.519Z,40.30
2018-10-21T20:42:55.069Z,40.67
2018-10-21T20:45:26.869Z,41.53
2018-10-21T20:47:59.141Z,37.48
2018-10-21T20:50:31.139Z,38.40
2018-10-21T20:53:02.938Z,38.15
2018-10-21T20:58:10.889Z,35.87
2018-10-21T21:00:42.498Z,36.05
2018-10-21T21:03:14.070Z,35.33
2018-10-21T21:05:45.810Z,34.27
2018-10-21T21:08:18.274Z,34.83
2018-10-21T21:13:26.260Z,34.97
2018-10-21T21:15:57.907Z,35.08
2018-10-21T21:18:30.278Z,32.97
2018-10-21T21:21:01.950Z,33.93
2018-10-21T21:23:33.844Z,33.83
2018-10-21T21:26:06.575Z,35.03
2018-10-21T21:28:38.610Z,35.40
2018-10-21T21:31:10.495Z,36.03
2018-10-21T21:33:42.453Z,36.88
2018-10-21T21:36:14.209Z,37.33
2018-10-21T21:38:45.928Z,38.42
2018-10-21T21:41:17.756Z,39.30
2018-10-21T21:43:49.767Z,37.10
2018-10-21T21:48:57.308Z,36.27
2018-10-21T21:51:28.832Z,35.97
2018-10-21T21:54:00.467Z,34.77
2018-10-21T21:56:32.352Z,34.00
2018-10-21T21:59:04.007Z,34.60
2018-10-21T22:04:11.920Z,31.67
2018-10-21T22:06:43.930Z,32.93
2018-10-21T22:09:15.994Z,34.47
2018-10-21T22:14:23.635Z,34.63
2018-10-21T22:16:55.413Z,32.77
2018-10-21T22:19:27.649Z,32.17
2018-10-21T22:21:59.136Z,33.50
2018-10-21T22:24:31.109Z,31.97
2018-10-21T22:27:02.893Z,31.15
2018-10-21T22:29:34.887Z,31.47
2018-10-21T22:32:06.825Z,30.88
2018-10-21T22:34:39.912Z,31.90
2018-10-21T22:37:11.884Z,30.82
2018-10-21T22:39:44.164Z,31.03
2018-10-21T22:42:16.001Z,31.33
2018-10-21T22:44:47.634Z,28.55
2018-10-21T22:47:20.615Z,30.23
2018-10-21T22:49:52.307Z,30.47
2018-10-21T22:52:24.570Z,32.53
2018-10-21T22:54:56.104Z,31.65
2018-10-21T22:57:34.352Z,31.17
2018-10-21T23:00:10.128Z,33.40
2018-10-21T23:02:42.916Z,30.57
2018-10-21T23:05:16.233Z,33.10
2018-10-21T23:07:48.851Z,28.52
2018-10-21T23:10:21.160Z,37.00
2018-10-21T23:15:30.842Z,29.80
2018-10-21T23:18:03.223Z,30.72
2018-10-21T23:20:36.517Z,30.90
2018-10-21T23:23:08.331Z,30.45
2018-10-21T23:25:40.243Z,29.73
2018-10-21T23:28:12.269Z,27.67
2018-10-21T23:30:44.815Z,27.93
2018-10-21T23:33:16.638Z,28.53
2018-10-21T23:35:48.632Z,27.70
2018-10-21T23:38:20.844Z,28.10
2018-10-21T23:40:53.037Z,27.55
2018-10-21T23:43:25.143Z,28.97
2018-10-21T23:45:56.707Z,27.93
2018-10-21T23:48:29.005Z,26.65
2018-10-21T23:51:01.252Z,27.50
2018-10-21T23:53:33.322Z,29.10
2018-10-21T23:56:08.416Z,26.35
2018-10-21T23:58:40.220Z,29.57
